sensor_id;sensor_type;location;lat;lon;timestamp;P1;durP1;ratioP1;P2;durP2;ratioP2
16673;SDS011;8450;52.654;10.326;2023-03-31T05:44:37;5.10;;;2.23;;
16673;SDS011;8450;52.654;10.326;2023-03-31T05:47:03;4.30;;;2.00;;
16673;SDS011;8450;52.654;10.326;2023-03-31T05:49:29;3.80;;;2.33;;
16673;SDS011;8450;52.654;10.326;2023-03-31T05:51:54;2.23;;;1.93;;
16673;SDS011;8450;52.654;10.326;2023-03-31T05:54:20;3.20;;;1.90;;
16673;SDS011;8450;52.654;10.326;2023-03-31T05:56:46;5.40;;;2.20;;
16673;SDS011;8450;52.654;10.326;2023-03-31T05:59:12;2.37;;;2.10;;
16673;SDS011;8450;52.654;10.326;2023-03-31T06:01:39;4.47;;;1.90;;
16673;SDS011;8450;52.654;10.326;2023-03-31T06:04:05;4.20;;;2.47;;
16673;SDS011;8450;52.654;10.326;2023-03-31T06:06:30;5.47;;;2.33;;
16673;SDS011;8450;52.654;10.326;2023-03-31T06:08:57;3.90;;;2.03;;
16673;SDS011;8450;52.654;10.326;2023-03-31T06:11:22;3.23;;;1.83;;
16673;SDS011;8450;52.654;10.326;2023-03-31T06:13:48;2.80;;;1.90;;
16673;SDS011;8450;52.654;10.326;2023-03-31T06:16:14;4.03;;;2.70;;
16673;SDS011;8450;52.654;10.326;2023-03-31T06:18:41;5.30;;;2.20;;
16673;SDS011;8450;52.654;10.326;2023-03-31T06:21:08;4.97;;;2.33;;
16673;SDS011;8450;52.654;10.326;2023-03-31T06:23:36;2.70;;;1.80;;
16673;SDS011;8450;52.654;10.326;2023-03-31T06:26:03;2.60;;;2.10;;
16673;SDS011;8450;52.654;10.326;2023-03-31T06:28:32;3.60;;;2.20;;
16673;SDS011;8450;52.654;10.326;2023-03-31T06:31:03;4.43;;;2.70;;
16673;SDS011;8450;52.654;10.326;2023-03-31T06:33:30;5.17;;;2.80;;
16673;SDS011;8450;52.654;10.326;2023-03-31T06:35:57;2.63;;;2.10;;
16673;SDS011;8450;52.654;10.326;2023-03-31T06:38:23;2.57;;;2.10;;
16673;SDS011;8450;52.654;10.326;2023-03-31T06:40:49;4.63;;;2.43;;
16673;SDS011;8450;52.654;10.326;2023-03-31T06:43:15;3.60;;;2.30;;
16673;SDS011;8450;52.654;10.326;2023-03-31T06:45:40;4.70;;;2.20;;
16673;SDS011;8450;52.654;10.326;2023-03-31T06:48:06;5.80;;;2.63;;
16673;SDS011;8450;52.654;10.326;2023-03-31T06:50:31;4.33;;;2.67;;
16673;SDS011;8450;52.654;10.326;2023-03-31T06:52:57;3.97;;;2.10;;
16673;SDS011;8450;52.654;10.326;2023-03-31T06:55:24;4.07;;;2.13;;
16673;SDS011;8450;52.654;10.326;2023-03-31T06:57:49;4.17;;;2.07;;
16673;SDS011;8450;52.654;10.326;2023-03-31T07:00:15;4.93;;;1.97;;
16673;SDS011;8450;52.654;10.326;2023-03-31T07:02:41;6.33;;;2.63;;
16673;SDS011;8450;52.654;10.326;2023-03-31T07:05:07;4.37;;;2.30;;
16673;SDS011;8450;52.654;10.326;2023-03-31T07:07:33;2.80;;;2.10;;
16673;SDS011;8450;52.654;10.326;2023-03-31T07:09:59;3.70;;;2.30;;
16673;SDS011;8450;52.654;10.326;2023-03-31T07:12:24;3.47;;;2.20;;
16673;SDS011;8450;52.654;10.326;2023-03-31T07:14:50;3.73;;;2.37;;
16673;SDS011;8450;52.654;10.326;2023-03-31T07:17:15;2.90;;;1.90;;
16673;SDS011;8450;52.654;10.326;2023-03-31T07:19:41;4.67;;;2.37;;
16673;SDS011;8450;52.654;10.326;2023-03-31T07:22:07;3.53;;;2.27;;
16673;SDS011;8450;52.654;10.326;2023-03-31T07:24:33;3.67;;;1.80;;
16673;SDS011;8450;52.654;10.326;2023-03-31T07:26:59;4.63;;;2.10;;
16673;SDS011;8450;52.654;10.326;2023-03-31T07:29:25;4.73;;;1.90;;
16673;SDS011;8450;52.654;10.326;2023-03-31T07:31:50;4.77;;;2.00;;
16673;SDS011;8450;52.654;10.326;2023-03-31T07:34:16;3.67;;;2.00;;
16673;SDS011;8450;52.654;10.326;2023-03-31T07:36:42;5.33;;;2.10;;
16673;SDS011;8450;52.654;10.326;2023-03-31T07:39:07;6.63;;;2.30;;
16673;SDS011;8450;52.654;10.326;2023-03-31T07:41:33;4.90;;;2.10;;
16673;SDS011;8450;52.654;10.326;2023-03-31T07:43:59;2.37;;;1.60;;
16673;SDS011;8450;52.654;10.326;2023-03-31T07:46:26;6.03;;;1.93;;
16673;SDS011;8450;52.654;10.326;2023-03-31T07:48:53;2.57;;;1.70;;
16673;SDS011;8450;52.654;10.326;2023-03-31T07:51:21;3.53;;;1.60;;
16673;SDS011;8450;52.654;10.326;2023-03-31T07:53:49;4.87;;;2.20;;
16673;SDS011;8450;52.654;10.326;2023-03-31T07:56:16;2.97;;;1.90;;
16673;SDS011;8450;52.654;10.326;2023-03-31T07:58:43;2.90;;;1.70;;
16673;SDS011;8450;52.654;10.326;2023-03-31T08:01:13;3.33;;;1.60;;
16673;SDS011;8450;52.654;10.326;2023-03-31T08:03:43;3.90;;;1.80;;
16673;SDS011;8450;52.654;10.326;2023-03-31T08:06:09;3.43;;;1.70;;
16673;SDS011;8450;52.654;10.326;2023-03-31T08:08:35;3.73;;;1.80;;
16673;SDS011;8450;52.654;10.326;2023-03-31T08:11:02;3.13;;;2.03;;
16673;SDS011;8450;52.654;10.326;2023-03-31T08:13:28;3.87;;;1.90;;
16673;SDS011;8450;52.654;10.326;2023-03-31T08:15:54;4.73;;;2.00;;
16673;SDS011;8450;52.654;10.326;2023-03-31T08:18:20;2.53;;;1.67;;
16673;SDS011;8450;52.654;10.326;2023-03-31T08:20:46;5.03;;;1.90;;
16673;SDS011;8450;52.654;10.326;2023-03-31T08:23:13;2.60;;;1.77;;
16673;SDS011;8450;52.654;10.326;2023-03-31T08:25:39;2.10;;;1.50;;
16673;SDS011;8450;52.654;10.326;2023-03-31T08:28:05;3.67;;;1.97;;
16673;SDS011;8450;52.654;10.326;2023-03-31T08:30:35;3.40;;;1.80;;
16673;SDS011;8450;52.654;10.326;2023-03-31T08:33:01;3.00;;;1.80;;
16673;SDS011;8450;52.654;10.326;2023-03-31T08:35:27;4.60;;;1.73;;
16673;SDS011;8450;52.654;10.326;2023-03-31T08:37:53;3.63;;;1.90;;
16673;SDS011;8450;52.654;10.326;2023-03-31T08:40:20;3.00;;;1.67;;
16673;SDS011;8450;52.654;10.326;2023-03-31T08:42:49;4.13;;;1.90;;
16673;SDS011;8450;52.654;10.326;2023-03-31T08:47:47;4.67;;;2.00;;
16673;SDS011;8450;52.654;10.326;2023-03-31T08:50:18;3.37;;;2.00;;
16673;SDS011;8450;52.654;10.326;2023-03-31T08:53:03;2.80;;;2.10;;
16673;SDS011;8450;52.654;10.326;2023-03-31T08:55:33;2.53;;;1.60;;
16673;SDS011;8450;52.654;10.326;2023-03-31T09:01:10;2.70;;;1.70;;
16673;SDS011;8450;52.654;10.326;2023-03-31T09:04:05;3.57;;;2.03;;
16673;SDS011;8450;52.654;10.326;2023-03-31T09:15:13;3.87;;;2.23;;
16673;SDS011;8450;52.654;10.326;2023-03-31T09:17:48;2.60;;;1.70;;
16673;SDS011;8450;52.654;10.326;2023-03-31T09:20:17;2.63;;;2.00;;
16673;SDS011;8450;52.654;10.326;2023-03-31T09:22:46;3.87;;;2.23;;
16673;SDS011;8450;52.654;10.326;2023-03-31T09:27:49;3.10;;;2.43;;
16673;SDS011;8450;52.654;10.326;2023-03-31T09:30:36;2.63;;;2.23;;
16673;SDS011;8450;52.654;10.326;2023-03-31T09:35:52;2.80;;;2.07;;
16673;SDS011;8450;52.654;10.326;2023-03-31T09:38:18;3.90;;;2.33;;
16673;SDS011;8450;52.654;10.326;2023-03-31T09:40:43;2.87;;;2.10;;
16673;SDS011;8450;52.654;10.326;2023-03-31T09:43:30;2.73;;;2.10;;
16673;SDS011;8450;52.654;10.326;2023-03-31T09:45:57;4.27;;;2.00;;
16673;SDS011;8450;52.654;10.326;2023-03-31T09:48:24;3.90;;;2.03;;
16673;SDS011;8450;52.654;10.326;2023-03-31T09:51:03;3.60;;;2.50;;
16673;SDS011;8450;52.654;10.326;2023-03-31T09:56:06;3.13;;;2.23;;
16673;SDS011;8450;52.654;10.326;2023-03-31T09:58:42;4.47;;;2.17;;
16673;SDS011;8450;52.654;10.326;2023-03-31T10:01:11;3.73;;;2.33;;
16673;SDS011;8450;52.654;10.326;2023-03-31T10:06:17;2.30;;;2.10;;
16673;SDS011;8450;52.654;10.326;2023-03-31T10:08:53;3.17;;;2.20;;
16673;SDS011;8450;52.654;10.326;2023-03-31T10:11:23;2.50;;;2.30;;
16673;SDS011;8450;52.654;10.326;2023-03-31T10:16:44;2.43;;;2.00;;
16673;SDS011;8450;52.654;10.326;2023-03-31T10:21:46;2.67;;;1.97;;
16673;SDS011;8450;52.654;10.326;2023-03-31T10:24:16;2.90;;;2.00;;
16673;SDS011;8450;52.654;10.326;2023-03-31T10:26:45;3.63;;;2.40;;
16673;SDS011;8450;52.654;10.326;2023-03-31T10:29:14;2.03;;;1.90;;
16673;SDS011;8450;52.654;10.326;2023-03-31T10:32:11;3.10;;;2.33;;
16673;SDS011;8450;52.654;10.326;2023-03-31T10:34:53;2.90;;;2.10;;
16673;SDS011;8450;52.654;10.326;2023-03-31T10:37:27;2.47;;;1.93;;
16673;SDS011;8450;52.654;10.326;2023-03-31T10:40:04;3.13;;;2.57;;
16673;SDS011;8450;52.654;10.326;2023-03-31T10:42:45;3.13;;;2.33;;
16673;SDS011;8450;52.654;10.326;2023-03-31T10:47:51;3.67;;;2.23;;
16673;SDS011;8450;52.654;10.326;2023-03-31T10:50:19;4.10;;;2.17;;
16673;SDS011;8450;52.654;10.326;2023-03-31T10:53:00;3.20;;;2.03;;
16673;SDS011;8450;52.654;10.326;2023-03-31T10:55:32;3.50;;;1.90;;
16673;SDS011;8450;52.654;10.326;2023-03-31T10:58:05;3.90;;;2.20;;
16673;SDS011;8450;52.654;10.326;2023-03-31T11:04:01;3.87;;;2.20;;
16673;SDS011;8450;52.654;10.326;2023-03-31T11:06:36;6.27;;;2.20;;
16673;SDS011;8450;52.654;10.326;2023-03-31T11:12:06;3.73;;;2.30;;
16673;SDS011;8450;52.654;10.326;2023-03-31T11:20:19;4.40;;;2.30;;
16673;SDS011;8450;52.654;10.326;2023-03-31T11:23:20;2.73;;;1.97;;
16673;SDS011;8450;52.654;10.326;2023-03-31T11:26:00;3.33;;;2.20;;
16673;SDS011;8450;52.654;10.326;2023-03-31T11:31:26;4.40;;;2.20;;
16673;SDS011;8450;52.654;10.326;2023-03-31T11:34:14;3.37;;;1.97;;
16673;SDS011;8450;52.654;10.326;2023-03-31T11:36:53;5.03;;;2.57;;
16673;SDS011;8450;52.654;10.326;2023-03-31T11:39:49;3.23;;;1.90;;
16673;SDS011;8450;52.654;10.326;2023-03-31T11:42:47;3.57;;;2.17;;
16673;SDS011;8450;52.654;10.326;2023-03-31T11:45:24;2.23;;;1.80;;
16673;SDS011;8450;52.654;10.326;2023-03-31T11:47:54;3.87;;;2.13;;
16673;SDS011;8450;52.654;10.326;2023-03-31T11:50:28;2.00;;;1.80;;
16673;SDS011;8450;52.654;10.326;2023-03-31T11:55:26;3.40;;;1.80;;
16673;SDS011;8450;52.654;10.326;2023-03-31T11:57:57;3.10;;;2.00;;
16673;SDS011;8450;52.654;10.326;2023-03-31T12:00:33;2.30;;;1.67;;
16673;SDS011;8450;52.654;10.326;2023-03-31T12:06:17;3.57;;;1.80;;
16673;SDS011;8450;52.654;10.326;2023-03-31T12:09:02;2.07;;;1.70;;
16673;SDS011;8450;52.654;10.326;2023-03-31T12:12:18;2.90;;;1.60;;
16673;SDS011;8450;52.654;10.326;2023-03-31T12:14:52;1.43;;;1.33;;
16673;SDS011;8450;52.654;10.326;2023-03-31T12:17:25;2.03;;;1.40;;
16673;SDS011;8450;52.654;10.326;2023-03-31T12:19:55;2.00;;;1.50;;
16673;SDS011;8450;52.654;10.326;2023-03-31T12:22:26;2.17;;;1.80;;
16673;SDS011;8450;52.654;10.326;2023-03-31T12:24:56;1.57;;;1.40;;
16673;SDS011;8450;52.654;10.326;2023-03-31T12:27:24;2.00;;;1.40;;
16673;SDS011;8450;52.654;10.326;2023-03-31T12:29:57;3.50;;;1.47;;
16673;SDS011;8450;52.654;10.326;2023-03-31T12:32:27;1.90;;;1.50;;
16673;SDS011;8450;52.654;10.326;2023-03-31T12:35:01;1.57;;;1.37;;
16673;SDS011;8450;52.654;10.326;2023-03-31T12:43:44;2.73;;;1.43;;
16673;SDS011;8450;52.654;10.326;2023-03-31T12:51:57;3.30;;;1.57;;
16673;SDS011;8450;52.654;10.326;2023-03-31T12:54:43;2.30;;;1.60;;
16673;SDS011;8450;52.654;10.326;2023-03-31T12:57:19;2.00;;;1.60;;
16673;SDS011;8450;52.654;10.326;2023-03-31T13:02:38;1.67;;;1.57;;
16673;SDS011;8450;52.654;10.326;2023-03-31T13:08:07;1.90;;;1.70;;
16673;SDS011;8450;52.654;10.326;2023-03-31T13:10:52;3.60;;;2.00;;
16673;SDS011;8450;52.654;10.326;2023-03-31T13:13:21;2.17;;;1.60;;
16673;SDS011;8450;52.654;10.326;2023-03-31T13:15:54;2.93;;;2.10;;
16673;SDS011;8450;52.654;10.326;2023-03-31T13:18:21;1.97;;;1.70;;
16673;SDS011;8450;52.654;10.326;2023-03-31T13:20:57;4.43;;;1.70;;
16673;SDS011;8450;52.654;10.326;2023-03-31T13:23:24;2.30;;;2.10;;
16673;SDS011;8450;52.654;10.326;2023-03-31T13:25:52;1.90;;;1.70;;
16673;SDS011;8450;52.654;10.326;2023-03-31T13:30:48;1.67;;;1.57;;
16673;SDS011;8450;52.654;10.326;2023-03-31T13:33:19;1.93;;;1.60;;
16673;SDS011;8450;52.654;10.326;2023-03-31T13:41:34;2.87;;;1.67;;
16673;SDS011;8450;52.654;10.326;2023-03-31T13:52:38;1.40;;;1.30;;
16673;SDS011;8450;52.654;10.326;2023-03-31T13:58:23;2.77;;;1.40;;
16673;SDS011;8450;52.654;10.326;2023-03-31T14:06:36;1.70;;;1.37;;
16673;SDS011;8450;52.654;10.326;2023-03-31T14:09:09;1.50;;;1.40;;
16673;SDS011;8450;52.654;10.326;2023-03-31T14:11:40;2.37;;;1.40;;
16673;SDS011;8450;52.654;10.326;2023-03-31T14:14:16;1.87;;;1.30;;
16673;SDS011;8450;52.654;10.326;2023-03-31T14:28:18;1.87;;;1.30;;
16673;SDS011;8450;52.654;10.326;2023-03-31T14:36:53;2.60;;;1.50;;
16673;SDS011;8450;52.654;10.326;2023-03-31T14:39:37;2.13;;;1.40;;
16673;SDS011;8450;52.654;10.326;2023-03-31T14:42:11;2.77;;;1.50;;
16673;SDS011;8450;52.654;10.326;2023-03-31T14:44:39;1.47;;;1.30;;
16673;SDS011;8450;52.654;10.326;2023-03-31T14:47:19;2.30;;;1.47;;
16673;SDS011;8450;52.654;10.326;2023-03-31T14:49:46;1.73;;;1.30;;
16673;SDS011;8450;52.654;10.326;2023-03-31T14:52:17;1.60;;;1.30;;
16673;SDS011;8450;52.654;10.326;2023-03-31T14:54:44;1.57;;;1.33;;
16673;SDS011;8450;52.654;10.326;2023-03-31T14:57:12;1.50;;;1.20;;
16673;SDS011;8450;52.654;10.326;2023-03-31T14:59:42;1.37;;;1.27;;
16673;SDS011;8450;52.654;10.326;2023-03-31T15:02:08;2.20;;;1.53;;
16673;SDS011;8450;52.654;10.326;2023-03-31T15:04:40;1.30;;;1.20;;
16673;SDS011;8450;52.654;10.326;2023-03-31T15:07:09;2.13;;;1.50;;
16673;SDS011;8450;52.654;10.326;2023-03-31T15:09:35;3.37;;;1.30;;
16673;SDS011;8450;52.654;10.326;2023-03-31T15:12:03;2.27;;;1.60;;
16673;SDS011;8450;52.654;10.326;2023-03-31T15:14:39;2.27;;;1.63;;
16673;SDS011;8450;52.654;10.326;2023-03-31T15:17:21;1.93;;;1.43;;
16673;SDS011;8450;52.654;10.326;2023-03-31T15:19:54;2.63;;;1.90;;
16673;SDS011;8450;52.654;10.326;2023-03-31T15:22:22;2.23;;;1.63;;
16673;SDS011;8450;52.654;10.326;2023-03-31T15:24:49;2.00;;;1.57;;
16673;SDS011;8450;52.654;10.326;2023-03-31T15:29:42;4.77;;;1.63;;
16673;SDS011;8450;52.654;10.326;2023-03-31T15:32:16;2.97;;;1.73;;
16673;SDS011;8450;52.654;10.326;2023-03-31T15:34:50;2.60;;;1.73;;
16673;SDS011;8450;52.654;10.326;2023-03-31T15:37:16;2.40;;;1.77;;
16673;SDS011;8450;52.654;10.326;2023-03-31T15:39:54;2.93;;;1.70;;
16673;SDS011;8450;52.654;10.326;2023-03-31T15:42:22;3.00;;;1.80;;
16673;SDS011;8450;52.654;10.326;2023-03-31T15:48:00;3.03;;;1.67;;
16673;SDS011;8450;52.654;10.326;2023-03-31T15:50:27;2.17;;;1.83;;
16673;SDS011;8450;52.654;10.326;2023-03-31T15:52:54;2.80;;;1.70;;
16673;SDS011;8450;52.654;10.326;2023-03-31T15:57:48;3.10;;;1.87;;
16673;SDS011;8450;52.654;10.326;2023-03-31T16:01:00;2.80;;;1.90;;
16673;SDS011;8450;52.654;10.326;2023-03-31T16:03:25;4.10;;;1.83;;
16673;SDS011;8450;52.654;10.326;2023-03-31T16:07:00;2.30;;;1.63;;
16673;SDS011;8450;52.654;10.326;2023-03-31T16:09:03;4.07;;;1.70;;
16673;SDS011;8450;52.654;10.326;2023-03-31T16:11:36;2.20;;;1.90;;
16673;SDS011;8450;52.654;10.326;2023-03-31T16:14:07;3.87;;;1.80;;
16673;SDS011;8450;52.654;10.326;2023-03-31T16:16:37;1.63;;;1.53;;
16673;SDS011;8450;52.654;10.326;2023-03-31T16:19:05;2.23;;;1.67;;
16673;SDS011;8450;52.654;10.326;2023-03-31T16:21:41;3.03;;;2.20;;
16673;SDS011;8450;52.654;10.326;2023-03-31T16:24:11;3.30;;;2.07;;
16673;SDS011;8450;52.654;10.326;2023-03-31T16:26:37;4.70;;;2.10;;
16673;SDS011;8450;52.654;10.326;2023-03-31T16:29:03;4.10;;;2.13;;
16673;SDS011;8450;52.654;10.326;2023-03-31T16:31:30;4.93;;;2.23;;
